createdAt,value
2022-12-25T00:03:38.382Z,89.00
2022-12-25T00:07:40.069Z,86.53
2022-12-25T00:11:42.100Z,118.85
2022-12-25T00:15:43.832Z,93.70
2022-12-25T00:19:45.872Z,88.20
2022-12-25T00:23:47.863Z,77.80
2022-12-25T00:27:49.793Z,88.10
2022-12-25T00:31:51.742Z,87.45
2022-12-25T00:36:00.688Z,91.03
2022-12-25T00:40:02.334Z,90.43
2022-12-25T00:44:04.646Z,76.40
2022-12-25T00:48:06.701Z,84.65
2022-12-25T00:52:09.316Z,81.85
2022-12-25T00:56:10.980Z,72.10
2022-12-25T01:00:13.624Z,84.63
2022-12-25T01:04:15.552Z,70.13
2022-12-25T01:08:17.489Z,69.57
2022-12-25T01:12:19.436Z,69.45
2022-12-25T01:16:21.825Z,70.10
2022-12-25T01:20:23.639Z,62.72
2022-12-25T01:24:25.610Z,77.05
2022-12-25T01:28:27.354Z,66.68
2022-12-25T01:32:29.299Z,57.38
2022-12-25T01:36:31.025Z,68.28
2022-12-25T01:40:34.888Z,72.72
2022-12-25T01:44:36.623Z,90.72
2022-12-25T01:48:39.716Z,69.20
2022-12-25T01:52:41.659Z,84.22
2022-12-25T01:56:45.533Z,67.75
2022-12-25T02:00:47.764Z,70.28
2022-12-25T02:05:04.788Z,71.78
2022-12-25T02:09:06.535Z,70.63
2022-12-25T02:13:08.580Z,72.60
2022-12-25T02:17:18.148Z,101.22
2022-12-25T02:21:23.095Z,72.65
2022-12-25T02:25:42.416Z,87.10
2022-12-25T02:30:04.818Z,81.72
2022-12-25T02:34:33.911Z,81.57
2022-12-25T02:39:04.355Z,73.40
2022-12-25T02:43:35.296Z,98.72
2022-12-25T02:47:57.411Z,103.72
2022-12-25T02:52:23.444Z,92.13
2022-12-25T02:56:48.112Z,93.60
2022-12-25T03:01:12.965Z,99.78
2022-12-25T03:05:38.126Z,114.18
2022-12-25T03:10:28.238Z,110.40
2022-12-25T03:14:48.821Z,106.10
2022-12-25T03:18:50.654Z,99.28
2022-12-25T03:23:13.061Z,105.40
2022-12-25T03:27:14.688Z,94.28
2022-12-25T03:31:28.363Z,83.63
2022-12-25T03:35:47.560Z,92.10
2022-12-25T03:40:35.715Z,99.35
2022-12-25T03:44:55.089Z,94.45
2022-12-25T03:49:24.050Z,123.97
2022-12-25T03:53:54.144Z,126.18
2022-12-25T03:58:15.488Z,120.25
2022-12-25T04:02:35.827Z,108.07
2022-12-25T04:06:56.374Z,119.50
2022-12-25T04:11:16.763Z,98.85
2022-12-25T04:15:37.538Z,109.55
2022-12-25T04:19:58.134Z,125.80
2022-12-25T04:24:18.761Z,163.73
2022-12-25T04:28:39.206Z,120.10
2022-12-25T04:32:59.793Z,135.50
2022-12-25T04:37:01.482Z,160.30
2022-12-25T04:41:03.794Z,98.45
2022-12-25T04:45:05.851Z,124.53
2022-12-25T04:49:07.832Z,119.10
2022-12-25T04:53:09.533Z,110.57
2022-12-25T04:57:11.505Z,116.53
2022-12-25T05:01:13.806Z,153.25
2022-12-25T05:05:15.834Z,153.35
2022-12-25T05:09:17.621Z,139.02
2022-12-25T05:13:19.601Z,140.13
2022-12-25T05:17:21.347Z,117.90
2022-12-25T05:21:23.405Z,141.77
2022-12-25T05:25:25.247Z,115.80
2022-12-25T05:29:27.244Z,117.28
2022-12-25T05:33:28.932Z,139.27
2022-12-25T05:37:31.248Z,140.15
2022-12-25T05:41:34.755Z,142.50
2022-12-25T05:45:37.005Z,136.88
2022-12-25T05:49:38.715Z,135.77
2022-12-25T05:53:42.118Z,190.95
2022-12-25T05:57:43.815Z,172.40
2022-12-25T06:01:46.878Z,162.10
2022-12-25T06:05:48.718Z,128.90
2022-12-25T06:09:50.676Z,133.50
2022-12-25T06:13:53.284Z,152.82
2022-12-25T06:17:55.481Z,132.95
2022-12-25T06:21:57.253Z,136.95
2022-12-25T06:25:59.716Z,136.32
2022-12-25T06:30:01.461Z,124.53
2022-12-25T06:34:03.556Z,160.35
2022-12-25T06:38:05.178Z,111.28
2022-12-25T06:42:07.313Z,132.85
2022-12-25T06:46:12.208Z,138.30
2022-12-25T06:50:15.106Z,152.48
2022-12-25T06:54:16.853Z,131.18
2022-12-25T06:58:18.789Z,123.35
2022-12-25T07:02:23.137Z,135.85
2022-12-25T07:06:25.803Z,141.40
2022-12-25T07:10:27.487Z,148.13
2022-12-25T07:14:29.674Z,141.82
2022-12-25T07:18:32.245Z,167.60
2022-12-25T07:22:34.162Z,148.45
2022-12-25T07:26:35.803Z,160.55
2022-12-25T07:30:37.804Z,149.05
2022-12-25T07:34:39.468Z,164.30
2022-12-25T07:38:42.395Z,169.45
2022-12-25T07:42:44.113Z,229.43
2022-12-25T07:46:46.176Z,171.32
2022-12-25T07:50:47.912Z,189.07
2022-12-25T07:54:49.963Z,243.52
2022-12-25T07:58:51.861Z,190.00
2022-12-25T08:02:53.679Z,186.07
2022-12-25T08:06:55.922Z,245.35
2022-12-25T08:10:57.927Z,238.23
2022-12-25T08:14:59.601Z,245.10
2022-12-25T08:19:01.663Z,203.45
2022-12-25T08:23:04.389Z,256.45
2022-12-25T08:27:06.324Z,171.65
2022-12-25T08:31:16.592Z,165.43
2022-12-25T08:35:18.626Z,139.05
2022-12-25T08:39:20.337Z,158.00
2022-12-25T08:43:22.394Z,119.50
2022-12-25T08:47:24.314Z,109.50
2022-12-25T08:51:26.477Z,131.68
2022-12-25T08:55:28.295Z,114.50
2022-12-25T08:59:30.808Z,125.82
2022-12-25T09:03:32.733Z,110.85
2022-12-25T09:07:34.801Z,140.63
2022-12-25T09:11:36.995Z,103.25
2022-12-25T09:15:39.879Z,107.97
2022-12-25T09:19:42.076Z,109.38
2022-12-25T09:23:44.270Z,111.40
2022-12-25T09:27:46.230Z,117.28
2022-12-25T09:31:48.212Z,104.63
2022-12-25T09:35:59.077Z,114.88
2022-12-25T09:40:00.735Z,104.75
2022-12-25T09:44:11.672Z,112.65
2022-12-25T09:48:15.579Z,93.82
2022-12-25T09:52:22.021Z,101.10
2022-12-25T09:56:25.909Z,139.57
2022-12-25T10:00:40.537Z,121.22
2022-12-25T10:04:42.207Z,103.95
2022-12-25T10:09:02.938Z,88.78
2022-12-25T10:13:29.167Z,94.32
2022-12-25T10:17:37.376Z,72.28
2022-12-25T10:21:39.615Z,79.22
2022-12-25T10:25:42.369Z,76.07
2022-12-25T10:29:46.456Z,77.00
2022-12-25T10:33:50.965Z,77.25
2022-12-25T10:37:58.804Z,79.43
2022-12-25T10:42:38.820Z,75.68
2022-12-25T10:46:42.579Z,71.00
2022-12-25T10:50:44.425Z,83.05
2022-12-25T10:54:46.508Z,75.22
2022-12-25T10:58:48.265Z,82.28
2022-12-25T11:02:50.983Z,65.57
2022-12-25T11:07:06.432Z,64.03
2022-12-25T11:11:19.721Z,58.70
2022-12-25T11:15:30.529Z,64.70
2022-12-25T11:19:33.112Z,62.83
2022-12-25T11:23:34.989Z,61.10
2022-12-25T11:27:36.976Z,70.40
2022-12-25T11:31:43.317Z,82.57
2022-12-25T11:35:50.633Z,62.75
2022-12-25T11:39:52.506Z,66.40
2022-12-25T11:43:59.450Z,59.72
2022-12-25T11:48:13.200Z,66.28
2022-12-25T11:52:17.969Z,64.28
2022-12-25T11:56:25.910Z,64.30
2022-12-25T12:00:31.453Z,62.33
2022-12-25T12:04:42.663Z,66.80
2022-12-25T12:08:51.384Z,63.20
2022-12-25T12:12:57.474Z,62.60
2022-12-25T12:17:00.393Z,70.13
2022-12-25T12:21:11.199Z,74.57
2022-12-25T12:25:18.088Z,64.32
2022-12-25T12:29:25.833Z,70.88
2022-12-25T12:33:33.371Z,77.35
2022-12-25T12:37:40.599Z,67.60
2022-12-25T12:41:49.733Z,71.50
2022-12-25T12:45:56.607Z,70.60
2022-12-25T12:50:00.380Z,77.93
2022-12-25T12:54:22.086Z,65.13
2022-12-25T12:58:27.676Z,74.80
2022-12-25T13:03:18.490Z,85.15
2022-12-25T13:07:52.502Z,84.00
2022-12-25T13:11:54.319Z,90.78
2022-12-25T13:15:58.000Z,79.72
2022-12-25T13:20:01.024Z,92.70
2022-12-25T13:24:10.590Z,75.47
2022-12-25T13:28:14.665Z,74.75
2022-12-25T13:32:23.222Z,76.55
2022-12-25T13:36:26.801Z,87.88
2022-12-25T13:40:29.110Z,86.43
2022-12-25T13:44:39.938Z,95.10
2022-12-25T13:48:42.782Z,85.50
2022-12-25T13:52:44.485Z,88.93
2022-12-25T13:56:50.651Z,88.25
2022-12-25T14:00:55.688Z,87.18
2022-12-25T14:04:58.143Z,91.38
2022-12-25T14:09:00.127Z,90.05
2022-12-25T14:13:05.879Z,95.28
2022-12-25T14:17:10.772Z,91.38
2022-12-25T14:21:22.816Z,109.78
2022-12-25T14:25:40.698Z,96.38
2022-12-25T14:29:48.012Z,107.83
2022-12-25T14:33:51.537Z,95.13
2022-12-25T14:38:00.037Z,92.65
2022-12-25T14:42:13.278Z,90.22
2022-12-25T14:46:24.006Z,112.43
2022-12-25T14:50:29.416Z,108.82
2022-12-25T14:54:31.405Z,101.72
2022-12-25T14:58:41.230Z,124.00
2022-12-25T15:02:46.410Z,120.25
2022-12-25T15:06:53.229Z,137.27
2022-12-25T15:11:00.505Z,114.80
2022-12-25T15:15:03.173Z,130.10
2022-12-25T15:19:07.271Z,158.55
2022-12-25T15:23:19.740Z,139.55
2022-12-25T15:27:22.354Z,116.80
2022-12-25T15:31:29.719Z,141.23
2022-12-25T15:35:33.310Z,150.23
2022-12-25T15:39:34.951Z,178.35
2022-12-25T15:43:41.066Z,222.60
2022-12-25T15:47:43.295Z,167.23
2022-12-25T15:51:45.387Z,185.50
2022-12-25T15:55:47.169Z,206.27
2022-12-25T15:59:49.216Z,204.45
2022-12-25T16:03:50.977Z,253.60
2022-12-25T16:07:53.147Z,241.15
2022-12-25T16:11:54.843Z,214.90
2022-12-25T16:15:56.872Z,278.15
2022-12-25T16:19:58.784Z,215.85
2022-12-25T16:24:00.943Z,243.30
2022-12-25T16:28:03.559Z,224.00
2022-12-25T16:32:05.543Z,248.15
2022-12-25T16:36:07.810Z,252.57
2022-12-25T16:40:10.278Z,238.27
2022-12-25T16:44:12.141Z,246.32
2022-12-25T16:48:14.375Z,250.75
2022-12-25T16:52:16.111Z,294.80
2022-12-25T16:56:20.674Z,263.48
2022-12-25T17:00:22.603Z,265.48
2022-12-25T17:04:25.365Z,255.48
2022-12-25T17:08:27.122Z,258.83
2022-12-25T17:12:29.159Z,285.42
2022-12-25T17:16:35.968Z,247.77
2022-12-25T17:20:38.169Z,297.50
2022-12-25T17:24:41.564Z,290.15
2022-12-25T17:28:43.491Z,229.13
2022-12-25T17:32:45.213Z,224.98
2022-12-25T17:36:47.892Z,239.77
2022-12-25T17:40:57.397Z,286.70
2022-12-25T17:45:02.621Z,224.80
2022-12-25T17:49:05.727Z,220.00
2022-12-25T17:53:07.433Z,215.90
2022-12-25T17:57:09.437Z,208.73
2022-12-25T18:01:14.085Z,209.55
2022-12-25T18:05:16.030Z,226.18
2022-12-25T18:09:18.858Z,200.48
2022-12-25T18:13:20.878Z,251.88
2022-12-25T18:17:22.593Z,240.85
2022-12-25T18:21:24.531Z,285.55
2022-12-25T18:25:26.348Z,226.25
2022-12-25T18:29:28.361Z,191.35
2022-12-25T18:33:30.082Z,194.88
2022-12-25T18:37:37.782Z,206.32
2022-12-25T18:42:00.231Z,205.00
2022-12-25T18:46:03.943Z,194.75
2022-12-25T18:50:07.131Z,204.35
2022-12-25T18:54:10.884Z,207.70
2022-12-25T18:58:13.602Z,213.10
2022-12-25T19:02:17.652Z,225.77
2022-12-25T19:06:25.744Z,234.60
2022-12-25T19:10:28.476Z,256.90
2022-12-25T19:14:30.417Z,239.27
2022-12-25T19:18:49.743Z,248.07
2022-12-25T19:22:51.524Z,213.43
2022-12-25T19:26:53.466Z,242.77
2022-12-25T19:30:55.224Z,254.70
2022-12-25T19:34:57.344Z,237.88
2022-12-25T19:38:59.214Z,304.52
2022-12-25T19:43:01.148Z,273.27
2022-12-25T19:47:03.065Z,274.80
2022-12-25T19:51:14.515Z,224.95
2022-12-25T19:55:18.626Z,237.20
2022-12-25T19:59:20.577Z,305.00
2022-12-25T20:03:22.386Z,464.52
2022-12-25T20:07:24.320Z,217.00
2022-12-25T20:11:30.744Z,226.52
2022-12-25T20:15:32.785Z,279.15
2022-12-25T20:19:34.627Z,313.75
2022-12-25T20:23:36.828Z,223.13
2022-12-25T20:27:38.581Z,184.30
2022-12-25T20:31:40.613Z,199.98
2022-12-25T20:35:46.462Z,371.08
2022-12-25T20:39:48.422Z,178.60
2022-12-25T20:43:50.957Z,215.80
2022-12-25T20:47:54.436Z,224.25
2022-12-25T20:52:01.396Z,274.00
2022-12-25T20:56:09.415Z,204.07
2022-12-25T21:00:11.638Z,175.93
2022-12-25T21:04:16.441Z,213.02
2022-12-25T21:08:20.178Z,163.10
2022-12-25T21:12:22.156Z,186.68
2022-12-25T21:16:25.222Z,146.38
2022-12-25T21:20:26.902Z,237.40
2022-12-25T21:24:28.941Z,166.82
2022-12-25T21:28:32.271Z,202.52
2022-12-25T21:32:52.972Z,168.60
2022-12-25T21:36:54.592Z,159.00
2022-12-25T21:41:02.352Z,160.40
2022-12-25T21:45:04.275Z,157.13
2022-12-25T21:49:06.611Z,145.90
2022-12-25T21:53:08.791Z,162.73
2022-12-25T21:57:10.766Z,153.18
2022-12-25T22:01:16.549Z,158.35
2022-12-25T22:05:37.900Z,148.52
2022-12-25T22:09:39.627Z,153.80
2022-12-25T22:14:00.211Z,161.48
2022-12-25T22:18:20.485Z,177.23
2022-12-25T22:22:25.402Z,177.27
2022-12-25T22:26:28.203Z,162.25
2022-12-25T22:30:30.221Z,193.75
2022-12-25T22:34:32.643Z,175.25
2022-12-25T22:38:34.996Z,193.98
2022-12-25T22:42:37.431Z,166.07
2022-12-25T22:46:39.442Z,158.18
2022-12-25T22:50:41.093Z,159.73
2022-12-25T22:54:43.081Z,174.90
2022-12-25T22:58:44.824Z,181.40
2022-12-25T23:02:47.405Z,161.23
2022-12-25T23:06:49.669Z,150.07
2022-12-25T23:10:52.123Z,152.48
2022-12-25T23:14:53.940Z,165.55
2022-12-25T23:19:14.699Z,150.18
2022-12-25T23:23:35.597Z,154.18
2022-12-25T23:27:37.597Z,139.57
2022-12-25T23:31:41.439Z,133.35
2022-12-25T23:35:43.534Z,129.05
2022-12-25T23:39:45.307Z,129.05
2022-12-25T23:43:47.356Z,125.82
2022-12-25T23:47:49.007Z,117.93
2022-12-25T23:51:51.321Z,109.65
2022-12-25T23:55:55.892Z,107.47
2022-12-25T23:59:58.075Z,102.88
